createdAt,value
2019-06-07T00:00:27.261Z,50.60
2019-06-07T00:02:36.407Z,51.00
2019-06-07T00:05:07.684Z,49.80
2019-06-07T00:07:35.964Z,48.30
2019-06-07T00:10:06.897Z,47.60
2019-06-07T00:12:36.550Z,47.60
2019-06-07T00:15:10.572Z,48.20
2019-06-07T00:17:36.075Z,48.20
2019-06-07T00:20:09.392Z,48.20
2019-06-07T00:22:37.708Z,48.30
2019-06-07T00:25:10.161Z,49.30
2019-06-07T00:27:37.362Z,50.50
2019-06-07T00:30:33.784Z,50.70
2019-06-07T00:32:43.685Z,48.90
2019-06-07T00:35:15.385Z,50.60
2019-06-07T00:37:43.201Z,50.90
2019-06-07T00:40:17.856Z,50.30
2019-06-07T00:42:43.080Z,51.60
2019-06-07T00:45:17.770Z,50.60
2019-06-07T00:47:44.093Z,48.40
2019-06-07T00:50:13.878Z,48.30
2019-06-07T00:53:14.783Z,49.70
2019-06-07T00:55:15.224Z,49.20
2019-06-07T00:57:43.618Z,50.80
2019-06-07T01:00:14.785Z,51.70
2019-06-07T01:02:43.110Z,52.60
2019-06-07T01:05:16.032Z,53.40
2019-06-07T01:07:42.557Z,52.80
2019-06-07T01:10:13.901Z,53.30
2019-06-07T01:12:42.466Z,53.90
2019-06-07T01:15:11.967Z,53.40
2019-06-07T01:18:32.523Z,54.50
2019-06-07T01:20:12.869Z,54.40
2019-06-07T01:22:42.665Z,54.30
2019-06-07T01:25:12.266Z,54.80
2019-06-07T01:27:41.664Z,54.00
2019-06-07T01:30:11.494Z,54.70
2019-06-07T01:32:40.981Z,55.90
2019-06-07T01:35:16.518Z,55.50
2019-06-07T01:37:45.772Z,55.20
2019-06-07T01:40:16.998Z,56.00
2019-06-07T01:42:44.869Z,55.40
2019-06-07T01:45:15.274Z,55.60
2019-06-07T01:47:44.811Z,57.20
2019-06-07T01:50:14.596Z,56.30
2019-06-07T01:52:44.175Z,57.00
2019-06-07T01:55:13.255Z,58.20
2019-06-07T01:57:48.111Z,59.30
2019-06-07T02:00:14.542Z,59.20
2019-06-07T02:02:42.659Z,57.70
2019-06-07T02:05:12.477Z,58.40
2019-06-07T02:07:41.866Z,58.10
2019-06-07T02:10:11.430Z,58.50
2019-06-07T02:12:43.603Z,59.20
2019-06-07T02:15:10.626Z,59.10
2019-06-07T02:17:39.928Z,59.40
2019-06-07T02:20:09.710Z,60.70
2019-06-07T02:22:39.098Z,60.20
2019-06-07T02:27:38.467Z,60.50
2019-06-07T02:30:36.888Z,60.90
2019-06-07T02:32:38.161Z,60.80
2019-06-07T02:35:07.624Z,62.10
2019-06-07T02:37:38.487Z,60.10
2019-06-07T02:40:08.357Z,60.00
2019-06-07T02:42:42.072Z,59.90
2019-06-07T02:45:08.295Z,60.10
2019-06-07T02:47:38.947Z,60.70
2019-06-07T02:50:10.167Z,60.60
2019-06-07T02:52:40.881Z,60.50
2019-06-07T02:55:09.655Z,60.90
2019-06-07T02:57:41.590Z,61.20
2019-06-07T03:00:40.486Z,61.20
2019-06-07T03:02:41.498Z,60.80
2019-06-07T03:05:09.340Z,61.20
2019-06-07T03:07:40.413Z,61.50
2019-06-07T03:10:09.914Z,61.60
2019-06-07T03:12:39.559Z,63.40
2019-06-07T03:15:08.808Z,63.50
2019-06-07T03:17:58.884Z,63.60
2019-06-07T03:20:31.610Z,64.60
2019-06-07T03:23:00.155Z,64.60
2019-06-07T03:25:30.847Z,65.70
2019-06-07T03:28:00.155Z,66.30
2019-06-07T03:30:48.761Z,66.90
2019-06-07T03:32:59.359Z,66.80
2019-06-07T03:35:31.355Z,67.10
2019-06-07T03:37:58.760Z,68.30
2019-06-07T03:40:29.105Z,69.40
2019-06-07T03:42:58.953Z,69.40
2019-06-07T03:45:28.995Z,69.40
2019-06-07T03:47:58.287Z,71.20
2019-06-07T03:50:31.741Z,70.80
2019-06-07T03:52:58.324Z,70.70
2019-06-07T03:55:27.943Z,70.20
2019-06-07T03:58:30.614Z,71.10
2019-06-07T04:00:29.733Z,72.00
2019-06-07T04:02:57.364Z,72.80
2019-06-07T04:05:28.676Z,73.80
2019-06-07T04:07:56.745Z,73.00
2019-06-07T04:10:44.853Z,73.90
2019-06-07T04:12:56.488Z,76.30
2019-06-07T04:15:26.112Z,75.60
2019-06-07T04:18:01.735Z,75.40
2019-06-07T04:20:25.510Z,76.20
2019-06-07T04:22:54.906Z,77.20
2019-06-07T04:25:24.253Z,77.10
2019-06-07T04:27:54.626Z,77.80
2019-06-07T04:30:36.515Z,77.80
2019-06-07T04:33:02.636Z,78.50
2019-06-07T04:35:32.933Z,78.90
2019-06-07T04:38:03.455Z,79.80
2019-06-07T04:40:34.398Z,80.90
2019-06-07T04:43:03.762Z,81.50
2019-06-07T04:45:40.549Z,81.80
2019-06-07T04:48:03.424Z,81.70
2019-06-07T04:50:35.386Z,82.00
2019-06-07T04:53:02.972Z,82.70
2019-06-07T04:55:33.917Z,83.30
2019-06-07T04:58:01.992Z,83.80
2019-06-07T05:00:51.835Z,84.50
2019-06-07T05:03:03.607Z,85.80
2019-06-07T05:05:34.443Z,86.20
2019-06-07T05:08:07.441Z,87.40
2019-06-07T05:10:35.165Z,88.20
2019-06-07T05:13:04.109Z,88.90
2019-06-07T05:15:34.576Z,89.80
2019-06-07T05:18:03.316Z,90.30
2019-06-07T05:20:34.165Z,90.50
2019-06-07T05:23:02.836Z,90.90
2019-06-07T05:25:34.091Z,91.20
2019-06-07T05:28:02.054Z,91.60
2019-06-07T05:31:02.032Z,91.90
2019-06-07T05:33:04.963Z,92.70
2019-06-07T05:35:35.676Z,93.10
2019-06-07T05:38:04.915Z,93.10
2019-06-07T05:40:48.078Z,93.40
2019-06-07T05:43:26.483Z,93.70
2019-06-07T05:45:56.172Z,93.90
2019-06-07T05:48:26.799Z,94.20
2019-06-07T05:50:57.474Z,95.40
2019-06-07T05:53:26.062Z,95.40
2019-06-07T05:55:56.311Z,96.20
2019-06-07T05:58:26.586Z,96.90
2019-06-07T06:00:56.181Z,96.90
2019-06-07T06:03:25.586Z,97.70
2019-06-07T06:05:55.782Z,97.90
2019-06-07T06:08:24.748Z,98.60
2019-06-07T06:10:54.944Z,98.90
2019-06-07T06:13:24.366Z,99.10
2019-06-07T06:16:01.273Z,99.30
2019-06-07T06:18:23.895Z,99.70
2019-06-07T06:21:15.453Z,99.90
2019-06-07T06:23:24.330Z,99.90
2019-06-07T06:25:57.685Z,99.90
2019-06-07T06:28:24.034Z,99.90
2019-06-07T06:30:53.657Z,99.90
2019-06-07T06:33:33.819Z,99.90
2019-06-07T06:35:52.930Z,99.90
2019-06-07T06:38:22.492Z,99.90
2019-06-07T06:41:05.278Z,99.90
2019-06-07T06:43:22.348Z,99.90
2019-06-07T06:45:51.612Z,99.90
2019-06-07T06:48:22.096Z,99.90
2019-06-07T06:50:52.669Z,99.90
2019-06-07T06:53:21.436Z,99.90
2019-06-07T06:55:51.436Z,99.90
2019-06-07T06:58:20.994Z,99.90
2019-06-07T07:01:04.922Z,99.90
2019-06-07T07:03:54.341Z,99.90
2019-06-07T07:05:54.543Z,99.90
2019-06-07T07:08:22.140Z,99.90
2019-06-07T07:10:53.215Z,99.90
2019-06-07T07:13:21.568Z,99.90
2019-06-07T07:15:57.216Z,99.90
2019-06-07T07:18:20.664Z,99.90
2019-06-07T07:20:51.291Z,99.90
2019-06-07T07:23:20.297Z,99.90
2019-06-07T07:25:55.519Z,99.90
2019-06-07T07:28:19.897Z,99.90
2019-06-07T07:30:52.654Z,99.90
2019-06-07T07:33:20.055Z,99.90
2019-06-07T07:36:14.055Z,99.90
2019-06-07T07:38:19.586Z,99.90
2019-06-07T07:41:01.978Z,99.90
2019-06-07T07:43:23.686Z,99.90
2019-06-07T07:46:01.456Z,99.90
2019-06-07T07:48:22.666Z,99.90
2019-06-07T07:50:56.940Z,99.90
2019-06-07T07:53:22.236Z,99.90
2019-06-07T07:55:54.937Z,99.90
2019-06-07T07:58:21.732Z,99.90
2019-06-07T08:01:02.735Z,99.90
2019-06-07T08:03:21.765Z,99.90
2019-06-07T08:05:53.907Z,99.90
2019-06-07T08:08:21.119Z,99.90
2019-06-07T08:10:52.602Z,99.90
2019-06-07T08:13:25.881Z,99.90
2019-06-07T08:15:54.429Z,99.90
2019-06-07T08:18:19.826Z,99.90
2019-06-07T08:21:08.743Z,99.90
2019-06-07T08:23:19.923Z,99.90
2019-06-07T08:25:49.278Z,99.90
2019-06-07T08:28:18.635Z,99.90
2019-06-07T08:30:52.144Z,99.90
2019-06-07T08:33:26.807Z,99.90
2019-06-07T08:36:13.916Z,99.90
2019-06-07T08:38:29.684Z,99.90
2019-06-07T08:40:55.737Z,99.90
2019-06-07T08:43:20.601Z,99.90
2019-06-07T08:45:53.161Z,99.90
2019-06-07T08:48:27.844Z,99.90
2019-06-07T08:50:47.999Z,99.90
2019-06-07T08:53:17.591Z,99.90
2019-06-07T08:55:47.079Z,99.90
2019-06-07T08:58:16.400Z,99.90
2019-06-07T09:00:47.554Z,99.90
2019-06-07T09:03:15.517Z,99.90
2019-06-07T09:05:45.661Z,99.90
2019-06-07T09:08:29.234Z,99.90
2019-06-07T09:10:44.859Z,99.90
2019-06-07T09:13:14.334Z,99.90
2019-06-07T09:15:43.694Z,99.90
2019-06-07T09:20:43.729Z,99.90
2019-06-07T09:23:17.302Z,99.90
2019-06-07T09:25:56.404Z,99.90
2019-06-07T09:28:19.105Z,99.90
2019-06-07T09:30:43.341Z,99.90
2019-06-07T09:33:12.947Z,99.90
2019-06-07T09:35:42.623Z,99.90
2019-06-07T09:38:24.312Z,99.90
2019-06-07T09:40:41.621Z,99.90
2019-06-07T09:45:41.733Z,99.90
2019-06-07T09:48:16.488Z,99.90
2019-06-07T09:50:42.648Z,99.90
2019-06-07T09:53:21.958Z,99.90
2019-06-07T09:55:42.179Z,99.90
2019-06-07T09:58:48.576Z,99.90
2019-06-07T10:00:42.794Z,99.90
2019-06-07T10:03:20.813Z,99.90
2019-06-07T10:05:40.930Z,99.90
2019-06-07T10:08:54.698Z,99.90
2019-06-07T10:10:42.890Z,99.90
2019-06-07T10:13:10.700Z,99.90
2019-06-07T10:15:39.780Z,99.90
2019-06-07T10:18:09.514Z,99.90
2019-06-07T10:20:39.087Z,99.90
2019-06-07T10:23:09.989Z,99.90
2019-06-07T10:25:38.246Z,99.90
2019-06-07T10:28:08.223Z,99.90
2019-06-07T10:30:37.877Z,99.90
2019-06-07T10:33:08.492Z,99.90
2019-06-07T10:35:37.443Z,99.90
2019-06-07T10:38:07.061Z,99.90
2019-06-07T10:40:36.252Z,99.90
2019-06-07T10:43:07.107Z,99.90
2019-06-07T10:45:35.594Z,99.90
2019-06-07T10:48:06.069Z,99.90
2019-06-07T10:50:35.672Z,99.90
2019-06-07T10:53:06.398Z,99.90
2019-06-07T10:55:34.704Z,99.90
2019-06-07T10:58:04.740Z,99.90
2019-06-07T11:00:33.960Z,99.90
2019-06-07T11:03:03.840Z,99.90
2019-06-07T11:05:33.105Z,99.90
2019-06-07T11:08:03.803Z,99.90
2019-06-07T11:10:32.569Z,99.90
2019-06-07T11:13:02.240Z,99.90
2019-06-07T11:15:31.917Z,99.90
2019-06-07T11:18:01.637Z,99.90
2019-06-07T11:20:30.922Z,99.90
2019-06-07T11:23:00.362Z,99.90
2019-06-07T11:25:29.862Z,99.90
2019-06-07T11:27:59.114Z,99.90
2019-06-07T11:30:28.530Z,99.90
2019-06-07T11:32:58.696Z,99.90
2019-06-07T11:35:28.208Z,99.90
2019-06-07T11:37:57.543Z,99.90
2019-06-07T11:40:35.664Z,99.90
2019-06-07T11:42:56.907Z,99.90
2019-06-07T11:45:26.043Z,99.90
2019-06-07T11:47:55.715Z,99.90
2019-06-07T11:50:25.239Z,99.90
2019-06-07T11:52:54.641Z,99.90
2019-06-07T11:55:23.998Z,99.90
2019-06-07T11:57:53.596Z,99.90
2019-06-07T12:00:23.941Z,99.90
2019-06-07T12:02:53.484Z,99.90
2019-06-07T12:05:22.945Z,99.90
2019-06-07T12:07:52.439Z,99.90
2019-06-07T12:10:23.118Z,99.90
2019-06-07T12:12:51.380Z,99.90
2019-06-07T12:15:21.774Z,99.90
2019-06-07T12:17:52.111Z,99.90
2019-06-07T12:20:21.605Z,99.90
2019-06-07T12:22:52.098Z,99.90
2019-06-07T12:25:25.041Z,99.90
2019-06-07T12:27:51.088Z,99.90
2019-06-07T12:30:27.274Z,99.90
2019-06-07T12:32:50.321Z,99.90
2019-06-07T12:35:19.999Z,99.90
2019-06-07T12:37:49.214Z,99.90
2019-06-07T12:40:27.618Z,99.90
2019-06-07T12:42:48.527Z,99.90
2019-06-07T12:45:42.332Z,99.90
2019-06-07T12:47:47.925Z,99.90
2019-06-07T12:50:17.534Z,99.90
2019-06-07T12:52:46.815Z,99.90
2019-06-07T12:55:22.708Z,99.90
2019-06-07T12:57:51.069Z,99.90
2019-06-07T13:00:20.320Z,99.90
2019-06-07T13:02:49.649Z,99.90
2019-06-07T13:05:19.941Z,99.90
2019-06-07T13:07:48.755Z,99.90
2019-06-07T13:10:20.050Z,99.90
2019-06-07T13:12:49.442Z,99.90
2019-06-07T13:15:20.699Z,99.90
2019-06-07T13:17:48.787Z,99.90
2019-06-07T13:20:20.286Z,99.90
2019-06-07T13:22:48.198Z,99.90
2019-06-07T13:25:18.459Z,99.90
2019-06-07T13:27:47.750Z,99.90
2019-06-07T13:30:18.827Z,99.90
2019-06-07T13:32:47.272Z,99.90
2019-06-07T13:35:19.697Z,99.90
2019-06-07T13:37:46.671Z,99.90
2019-06-07T13:40:16.377Z,99.90
2019-06-07T13:42:46.051Z,99.90
2019-06-07T13:45:15.119Z,99.90
2019-06-07T13:47:44.903Z,99.90
2019-06-07T13:50:14.518Z,99.90
2019-06-07T13:52:45.272Z,99.90
2019-06-07T13:55:13.594Z,99.90
2019-06-07T13:57:43.810Z,99.90
2019-06-07T14:00:13.451Z,99.90
2019-06-07T14:02:43.806Z,99.90
2019-06-07T14:05:14.431Z,99.90
2019-06-07T14:07:44.473Z,99.90
2019-06-07T14:10:13.932Z,99.90
2019-06-07T14:12:43.429Z,99.90
2019-06-07T14:15:13.008Z,99.90
2019-06-07T14:17:42.443Z,99.90
2019-06-07T14:20:11.941Z,99.90
2019-06-07T14:22:41.407Z,99.90
2019-06-07T14:25:11.331Z,99.90
2019-06-07T14:27:40.761Z,99.90
2019-06-07T14:30:10.954Z,99.90
2019-06-07T14:32:40.339Z,99.90
2019-06-07T14:35:10.580Z,99.90
2019-06-07T14:37:40.085Z,99.90
2019-06-07T14:40:09.691Z,99.90
2019-06-07T14:42:39.206Z,99.90
2019-06-07T14:45:09.104Z,99.90
2019-06-07T14:47:40.129Z,99.90
2019-06-07T14:50:10.867Z,99.90
2019-06-07T14:52:41.379Z,99.90
2019-06-07T14:55:10.970Z,99.90
2019-06-07T14:57:40.609Z,99.90
2019-06-07T15:00:12.145Z,99.90
2019-06-07T15:02:41.182Z,99.90
2019-06-07T15:05:10.899Z,99.90
2019-06-07T15:07:40.743Z,99.90
2019-06-07T15:10:10.167Z,99.90
2019-06-07T15:12:40.194Z,99.90
2019-06-07T15:15:10.429Z,99.90
2019-06-07T15:17:39.843Z,99.90
2019-06-07T15:20:09.888Z,99.90
2019-06-07T15:22:39.516Z,99.90
2019-06-07T15:25:08.821Z,99.90
2019-06-07T15:27:38.145Z,99.90
2019-06-07T15:30:10.397Z,99.90
2019-06-07T15:32:39.536Z,99.90
2019-06-07T15:35:09.254Z,99.90
2019-06-07T15:37:39.271Z,99.90
2019-06-07T15:40:08.848Z,99.90
2019-06-07T15:42:51.365Z,99.90
2019-06-07T15:45:08.360Z,99.90
2019-06-07T15:47:38.350Z,99.90
2019-06-07T15:50:08.687Z,99.90
2019-06-07T15:52:38.852Z,99.90
2019-06-07T15:55:09.148Z,99.90
2019-06-07T15:57:39.577Z,99.90
2019-06-07T16:00:13.186Z,99.90
2019-06-07T16:02:42.626Z,99.90
2019-06-07T16:05:12.248Z,99.90
2019-06-07T16:07:43.077Z,99.90
2019-06-07T16:10:12.303Z,99.90
2019-06-07T16:12:58.607Z,99.90
2019-06-07T16:15:11.531Z,99.90
2019-06-07T16:17:41.965Z,99.90
2019-06-07T16:20:11.872Z,99.90
2019-06-07T16:22:42.043Z,99.90
2019-06-07T16:25:11.045Z,99.90
2019-06-07T16:27:40.613Z,99.90
2019-06-07T16:30:10.312Z,99.90
2019-06-07T16:32:40.063Z,99.90
2019-06-07T16:35:09.794Z,99.90
2019-06-07T16:37:40.821Z,99.90
2019-06-07T16:40:09.932Z,99.70
2019-06-07T16:42:40.612Z,99.90
2019-06-07T16:45:09.987Z,99.90
2019-06-07T16:47:42.385Z,99.90
2019-06-07T16:50:09.871Z,99.90
2019-06-07T16:52:39.297Z,99.90
2019-06-07T16:55:09.055Z,99.90
2019-06-07T16:57:38.764Z,99.40
2019-06-07T17:00:09.943Z,99.40
2019-06-07T17:02:40.165Z,99.30
2019-06-07T17:05:09.522Z,99.70
2019-06-07T17:07:40.074Z,99.30
2019-06-07T17:10:10.029Z,98.60
2019-06-07T17:12:40.409Z,98.30
2019-06-07T17:15:09.234Z,98.60
2019-06-07T17:17:38.807Z,97.80
2019-06-07T17:20:09.036Z,97.20
2019-06-07T17:22:39.097Z,96.40
2019-06-07T17:25:08.293Z,96.80
2019-06-07T17:27:37.718Z,95.90
2019-06-07T17:30:08.484Z,95.00
2019-06-07T17:32:48.526Z,95.60
2019-06-07T17:35:07.755Z,95.30
2019-06-07T17:37:37.265Z,95.00
2019-06-07T17:40:06.610Z,96.10
2019-06-07T17:42:36.104Z,97.70
2019-06-07T17:45:08.290Z,98.90
2019-06-07T17:47:37.919Z,97.70
2019-06-07T17:50:07.615Z,98.10
2019-06-07T17:52:37.611Z,99.90
2019-06-07T17:55:08.398Z,99.90
2019-06-07T17:57:37.797Z,99.90
2019-06-07T18:00:27.710Z,99.90
2019-06-07T18:02:38.492Z,99.90
2019-06-07T18:05:08.886Z,99.90
2019-06-07T18:07:38.475Z,99.90
2019-06-07T18:10:08.732Z,99.90
2019-06-07T18:12:38.330Z,99.90
2019-06-07T18:15:09.405Z,99.90
2019-06-07T18:17:38.884Z,99.90
2019-06-07T18:20:08.614Z,99.90
2019-06-07T18:22:38.278Z,99.90
2019-06-07T18:25:07.958Z,99.90
2019-06-07T18:27:38.282Z,99.90
2019-06-07T18:30:11.773Z,99.90
2019-06-07T18:32:41.123Z,99.90
2019-06-07T18:35:10.250Z,99.90
2019-06-07T18:37:39.859Z,99.90
2019-06-07T18:40:09.388Z,99.90
2019-06-07T18:42:38.525Z,99.90
2019-06-07T18:45:08.022Z,99.90
2019-06-07T18:47:37.160Z,99.90
2019-06-07T18:50:06.873Z,99.90
2019-06-07T18:52:36.419Z,99.90
2019-06-07T18:55:08.386Z,99.90
2019-06-07T18:57:38.145Z,99.90
2019-06-07T19:00:09.108Z,99.90
2019-06-07T19:02:38.491Z,99.90
2019-06-07T19:05:08.561Z,99.50
2019-06-07T19:07:38.352Z,98.70
2019-06-07T19:10:08.412Z,99.90
2019-06-07T19:12:38.021Z,99.90
2019-06-07T19:15:08.234Z,99.90
2019-06-07T19:17:37.512Z,99.80
2019-06-07T19:20:07.327Z,99.60
2019-06-07T19:22:36.487Z,97.00
2019-06-07T19:25:07.234Z,98.00
2019-06-07T19:27:36.670Z,97.10
2019-06-07T19:30:07.316Z,94.70
2019-06-07T19:32:36.512Z,92.70
2019-06-07T19:35:07.664Z,92.70
2019-06-07T19:37:37.180Z,93.00
2019-06-07T19:40:07.887Z,93.70
2019-06-07T19:42:37.176Z,92.00
2019-06-07T19:45:29.149Z,93.80
2019-06-07T19:47:37.641Z,94.70
2019-06-07T19:50:07.925Z,96.00
2019-06-07T19:52:37.334Z,97.30
2019-06-07T19:55:09.764Z,96.70
2019-06-07T19:57:36.986Z,96.50
2019-06-07T20:00:13.511Z,96.20
2019-06-07T20:02:38.310Z,96.10
2019-06-07T20:05:08.296Z,96.10
2019-06-07T20:07:37.630Z,95.90
2019-06-07T20:10:07.235Z,95.80
2019-06-07T20:12:36.447Z,94.80
2019-06-07T20:15:27.076Z,93.40
2019-06-07T20:17:37.676Z,93.30
2019-06-07T20:20:08.895Z,94.60
2019-06-07T20:22:38.210Z,94.80
2019-06-07T20:25:07.643Z,94.60
2019-06-07T20:27:36.871Z,94.60
2019-06-07T20:30:10.771Z,95.40
2019-06-07T20:32:41.233Z,95.90
2019-06-07T20:35:10.707Z,95.80
2019-06-07T20:37:40.050Z,95.50
2019-06-07T20:40:23.696Z,96.00
2019-06-07T20:42:40.942Z,97.90
2019-06-07T20:45:10.314Z,98.40
2019-06-07T20:47:40.014Z,99.10
2019-06-07T20:50:09.540Z,99.90
2019-06-07T20:52:39.213Z,99.50
2019-06-07T20:55:09.381Z,99.50
2019-06-07T20:57:38.604Z,99.90
2019-06-07T21:00:14.252Z,98.80
2019-06-07T21:02:39.170Z,98.80
2019-06-07T21:05:09.864Z,99.40
2019-06-07T21:07:38.308Z,98.20
2019-06-07T21:10:08.967Z,97.20
2019-06-07T21:12:38.244Z,96.10
2019-06-07T21:15:11.845Z,96.70
2019-06-07T21:17:37.574Z,96.00
2019-06-07T21:20:09.899Z,97.70
2019-06-07T21:22:37.074Z,97.40
2019-06-07T21:25:07.222Z,97.60
2019-06-07T21:27:36.722Z,96.30
2019-06-07T21:30:09.485Z,96.00
2019-06-07T21:32:38.474Z,96.70
2019-06-07T21:35:08.194Z,96.50
2019-06-07T21:37:37.683Z,98.00
2019-06-07T21:40:10.203Z,97.70
2019-06-07T21:42:38.593Z,97.50
2019-06-07T21:45:09.808Z,95.80
2019-06-07T21:47:38.647Z,95.80
2019-06-07T21:50:10.606Z,94.90
2019-06-07T21:52:39.698Z,93.20
2019-06-07T21:55:09.691Z,94.80
2019-06-07T21:57:39.155Z,96.00
2019-06-07T22:00:09.302Z,93.00
2019-06-07T22:02:38.657Z,91.90
2019-06-07T22:05:09.478Z,91.80
2019-06-07T22:07:38.102Z,92.50
2019-06-07T22:10:08.066Z,91.90
2019-06-07T22:12:37.706Z,92.40
2019-06-07T22:15:24.819Z,93.50
2019-06-07T22:17:37.806Z,94.30
2019-06-07T22:20:08.602Z,93.40
2019-06-07T22:22:38.210Z,92.60
2019-06-07T22:25:09.171Z,92.40
2019-06-07T22:27:38.173Z,91.70
2019-06-07T22:30:08.498Z,93.10
2019-06-07T22:32:37.652Z,93.20
2019-06-07T22:35:08.807Z,93.80
2019-06-07T22:37:36.880Z,93.90
2019-06-07T22:40:08.533Z,95.10
2019-06-07T22:42:38.582Z,96.20
2019-06-07T22:45:08.301Z,96.20
2019-06-07T22:47:38.161Z,93.10
2019-06-07T22:50:08.686Z,93.30
2019-06-07T22:52:38.323Z,93.10
2019-06-07T22:55:09.828Z,94.10
2019-06-07T22:57:43.633Z,93.20
2019-06-07T23:00:15.594Z,94.40
2019-06-07T23:02:43.176Z,92.90
2019-06-07T23:05:12.773Z,94.00
2019-06-07T23:07:42.082Z,94.00
2019-06-07T23:10:11.590Z,94.30
2019-06-07T23:12:41.481Z,94.10
2019-06-07T23:15:11.517Z,94.40
2019-06-07T23:17:40.891Z,94.00
2019-06-07T23:20:11.777Z,93.70
2019-06-07T23:22:40.572Z,93.70
2019-06-07T23:25:10.094Z,94.30
2019-06-07T23:27:39.516Z,93.30
2019-06-07T23:30:10.597Z,92.90
2019-06-07T23:32:39.602Z,93.00
2019-06-07T23:35:09.170Z,92.70
2019-06-07T23:37:39.352Z,93.70
2019-06-07T23:40:09.032Z,93.60
2019-06-07T23:42:38.820Z,93.20
2019-06-07T23:45:08.259Z,93.60
2019-06-07T23:47:37.899Z,94.80
2019-06-07T23:50:07.099Z,94.70
2019-06-07T23:52:37.269Z,95.50
2019-06-07T23:55:07.940Z,96.20
2019-06-07T23:57:37.173Z,96.30
